createdAt,value
2022-07-28T00:00:04.086Z,100482.91
2022-07-28T00:02:12.370Z,100483.16
2022-07-28T00:04:17.761Z,100486.15
2022-07-28T00:06:22.345Z,100488.41
2022-07-28T00:08:27.020Z,100488.17
2022-07-28T00:10:31.586Z,100487.53
2022-07-28T00:12:36.272Z,100484.38
2022-07-28T00:14:40.830Z,100481.59
2022-07-28T00:16:45.557Z,100481.28
2022-07-28T00:18:50.382Z,100485.14
2022-07-28T00:20:54.998Z,100482.91
2022-07-28T00:22:59.720Z,100480.06
2022-07-28T00:25:04.345Z,100481.61
2022-07-28T00:27:08.938Z,100479.7
2022-07-28T00:29:13.586Z,100480.71
2022-07-28T00:31:18.501Z,100481.95
2022-07-28T00:33:23.426Z,100487.19
2022-07-28T00:35:32.777Z,100483.7
2022-07-28T00:37:41.074Z,100479.09
2022-07-28T00:39:45.697Z,100478.79
2022-07-28T00:41:50.319Z,100476.38
2022-07-28T00:43:54.915Z,100474.32
2022-07-28T00:45:59.453Z,100474.98
2022-07-28T00:48:04.068Z,100476.49
2022-07-28T00:50:08.803Z,100479.4
2022-07-28T00:52:13.417Z,100477.89
2022-07-28T00:54:18.042Z,100480.49
2022-07-28T00:56:22.762Z,100476.63
2022-07-28T00:58:27.300Z,100477.03
2022-07-28T01:00:31.901Z,100472.84
2022-07-28T01:02:36.829Z,100476.77
2022-07-28T01:04:41.658Z,100479.03
2022-07-28T01:06:46.175Z,100480.92
2022-07-28T01:08:50.778Z,100475.18
2022-07-28T01:10:55.415Z,100478
2022-07-28T01:13:00.137Z,100481.27
2022-07-28T01:15:04.739Z,100485.89
2022-07-28T01:17:09.489Z,100484.67
2022-07-28T01:19:14.000Z,100486.36
2022-07-28T01:21:18.695Z,100493.48
2022-07-28T01:23:23.544Z,100495.7
2022-07-28T01:25:28.067Z,100496.46
2022-07-28T01:27:32.688Z,100494.16
2022-07-28T01:29:37.304Z,100493.52
2022-07-28T01:31:42.254Z,100490.27
2022-07-28T01:33:46.944Z,100490.13
2022-07-28T01:35:51.580Z,100492.25
2022-07-28T01:37:56.301Z,100494.44
2022-07-28T01:40:00.919Z,100496.91
2022-07-28T01:42:05.413Z,100496.16
2022-07-28T01:44:10.404Z,100501.01
2022-07-28T01:46:15.753Z,100496.56
2022-07-28T01:48:20.532Z,100503.83
2022-07-28T01:50:25.120Z,100506.67
2022-07-28T01:52:29.659Z,100509
2022-07-28T01:54:34.292Z,100509.83
2022-07-28T01:56:38.910Z,100508.39
2022-07-28T01:58:43.602Z,100508.12
2022-07-28T02:00:48.153Z,100506.19
2022-07-28T02:02:52.877Z,100503.33
2022-07-28T02:04:58.326Z,100503.51
2022-07-28T02:07:03.018Z,100504.75
2022-07-28T02:09:07.553Z,100504.95
2022-07-28T02:11:12.137Z,100502.49
2022-07-28T02:13:16.775Z,100497.18
2022-07-28T02:15:21.314Z,100500.85
2022-07-28T02:17:25.831Z,100502.57
2022-07-28T02:19:30.451Z,100503.57
2022-07-28T02:21:37.529Z,100500.11
2022-07-28T02:23:42.147Z,100501.36
2022-07-28T02:25:46.769Z,100503.11
2022-07-28T02:27:51.369Z,100506.54
2022-07-28T02:29:56.014Z,100508.44
2022-07-28T02:32:01.915Z,100509.94
2022-07-28T02:34:09.375Z,100506.48
2022-07-28T02:36:17.390Z,100506.82
2022-07-28T02:38:23.401Z,100514.61
2022-07-28T02:40:28.024Z,100516.77
2022-07-28T02:42:32.642Z,100518.01
2022-07-28T02:44:37.415Z,100517.05
2022-07-28T02:46:42.253Z,100518.91
2022-07-28T02:48:47.152Z,100524.64
2022-07-28T02:50:51.800Z,100524.19
2022-07-28T02:52:56.366Z,100520.55
2022-07-28T02:55:00.986Z,100526.69
2022-07-28T02:57:05.485Z,100531.19
2022-07-28T02:59:10.111Z,100535.58
2022-07-28T03:01:14.722Z,100535.91
2022-07-28T03:03:19.313Z,100541.91
2022-07-28T03:05:24.141Z,100539.63
2022-07-28T03:07:28.914Z,100543.75
2022-07-28T03:09:34.354Z,100544.11
2022-07-28T03:11:38.971Z,100548.58
2022-07-28T03:13:43.487Z,100549.55
2022-07-28T03:15:48.087Z,100553.05
2022-07-28T03:17:52.587Z,100553.89
2022-07-28T03:19:57.256Z,100557.46
2022-07-28T03:22:01.875Z,100556.42
2022-07-28T03:24:06.689Z,100558.91
2022-07-28T03:26:11.312Z,100560.52
2022-07-28T03:28:16.016Z,100569.94
2022-07-28T03:30:20.759Z,100569.91
2022-07-28T03:32:25.374Z,100577.37
2022-07-28T03:34:30.002Z,100573.02
2022-07-28T03:36:34.625Z,100573.34
2022-07-28T03:38:39.243Z,100574.47
2022-07-28T03:40:47.669Z,100570.36
2022-07-28T03:42:52.271Z,100571.42
2022-07-28T03:44:57.000Z,100571.98
2022-07-28T03:47:01.720Z,100573.16
2022-07-28T03:49:06.307Z,100574.38
2022-07-28T03:51:10.963Z,100576.67
2022-07-28T03:53:15.783Z,100577.3
2022-07-28T03:55:20.403Z,100581.5
2022-07-28T03:57:25.007Z,100580.8
2022-07-28T03:59:29.643Z,100585.44
2022-07-28T04:01:34.469Z,100584.09
2022-07-28T04:03:45.337Z,100584.11
2022-07-28T04:05:49.958Z,100591.48
2022-07-28T04:07:54.571Z,100591.45
2022-07-28T04:09:59.201Z,100596.75
2022-07-28T04:12:03.904Z,100597.22
2022-07-28T04:14:11.016Z,100595.08
2022-07-28T04:16:23.421Z,100598.16
2022-07-28T04:18:28.079Z,100593.72
2022-07-28T04:20:32.642Z,100595.74
2022-07-28T04:22:37.277Z,100601.72
2022-07-28T04:24:41.884Z,100598.08
2022-07-28T04:26:46.492Z,100594.05
2022-07-28T04:28:51.125Z,100592.41
2022-07-28T04:30:55.979Z,100594.45
2022-07-28T04:33:00.771Z,100592.55
2022-07-28T04:35:05.299Z,100589.19
2022-07-28T04:37:09.795Z,100591.27
2022-07-28T04:39:14.433Z,100591.02
2022-07-28T04:41:19.153Z,100587.95
2022-07-28T04:43:24.018Z,100587
2022-07-28T04:45:28.690Z,100584.07
2022-07-28T04:47:33.429Z,100584.84
2022-07-28T04:49:38.151Z,100586.48
2022-07-28T04:51:42.771Z,100588.33
2022-07-28T04:53:47.498Z,100588.2
2022-07-28T04:55:53.576Z,100590.63
2022-07-28T04:57:59.954Z,100589.49
2022-07-28T05:00:04.714Z,100588.22
2022-07-28T05:02:10.023Z,100590.06
2022-07-28T05:04:15.277Z,100584.73
2022-07-28T05:06:21.165Z,100581.03
2022-07-28T05:08:27.412Z,100583.94
2022-07-28T05:10:31.934Z,100579.64
2022-07-28T05:12:36.552Z,100575.45
2022-07-28T05:14:41.165Z,100577.42
2022-07-28T05:16:46.928Z,100576.48
2022-07-28T05:18:52.710Z,100580.84
2022-07-28T05:20:57.395Z,100584.73
2022-07-28T05:23:01.982Z,100584.9
2022-07-28T05:25:06.519Z,100587.59
2022-07-28T05:27:11.151Z,100592.92
2022-07-28T05:29:15.775Z,100592.61
2022-07-28T05:31:20.443Z,100589.16
2022-07-28T05:33:31.861Z,100591.81
2022-07-28T05:35:36.680Z,100593.99
2022-07-28T05:37:41.321Z,100589.03
2022-07-28T05:39:45.937Z,100599.83
2022-07-28T05:41:50.665Z,100598.75
2022-07-28T05:43:55.530Z,100600.44
2022-07-28T05:46:00.431Z,100599.86
2022-07-28T05:48:05.957Z,100596.68
2022-07-28T05:50:10.581Z,100602.06
2022-07-28T05:52:15.169Z,100600.48
2022-07-28T05:54:19.712Z,100597.28
2022-07-28T05:56:24.338Z,100604.68
2022-07-28T05:58:29.064Z,100604.61
2022-07-28T06:00:33.736Z,100609.06
2022-07-28T06:02:38.575Z,100608.77
2022-07-28T06:04:43.522Z,100609.31
2022-07-28T06:06:48.056Z,100611.19
2022-07-28T06:08:52.780Z,100615.98
2022-07-28T06:10:58.329Z,100615.39
2022-07-28T06:13:03.147Z,100616.2
2022-07-28T06:15:07.753Z,100613.31
2022-07-28T06:17:12.354Z,100617.69
2022-07-28T06:19:17.009Z,100618.48
2022-07-28T06:21:21.729Z,100619.83
2022-07-28T06:23:26.353Z,100619.13
2022-07-28T06:25:30.977Z,100622.22
2022-07-28T06:27:35.481Z,100623.5
2022-07-28T06:29:40.466Z,100624.32
2022-07-28T06:31:45.542Z,100622.26
2022-07-28T06:33:50.099Z,100616.84
2022-07-28T06:35:54.688Z,100616.18
2022-07-28T06:37:59.414Z,100614.79
2022-07-28T06:40:05.864Z,100618.06
2022-07-28T06:42:10.286Z,100621.06
2022-07-28T06:44:15.490Z,100617.73
2022-07-28T06:46:21.175Z,100619.47
2022-07-28T06:48:30.301Z,100623.19
2022-07-28T06:50:35.022Z,100620.34
2022-07-28T06:52:39.614Z,100626.3
2022-07-28T06:54:49.739Z,100626.23
2022-07-28T06:56:56.514Z,100627.11
2022-07-28T06:59:04.649Z,100628.14
2022-07-28T07:01:09.430Z,100623.13
2022-07-28T07:03:14.290Z,100622.9
2022-07-28T07:05:19.043Z,100626.98
2022-07-28T07:07:23.641Z,100628.45
2022-07-28T07:09:28.163Z,100632.02
2022-07-28T07:11:32.764Z,100628.59
2022-07-28T07:13:37.418Z,100627.9
2022-07-28T07:15:42.039Z,100626.88
2022-07-28T07:17:46.661Z,100635.22
2022-07-28T07:19:51.250Z,100636.73
2022-07-28T07:21:55.803Z,100634.98
2022-07-28T07:24:00.526Z,100634.63
2022-07-28T07:26:05.145Z,100629.39
2022-07-28T07:28:09.870Z,100627.3
2022-07-28T07:30:14.492Z,100626.39
2022-07-28T07:32:19.115Z,100622.95
2022-07-28T07:34:23.729Z,100615.91
2022-07-28T07:36:28.452Z,100621.77
2022-07-28T07:38:33.055Z,100618.72
2022-07-28T07:40:37.798Z,100630.48
2022-07-28T07:42:42.523Z,100624.2
2022-07-28T07:44:51.340Z,100620.5
2022-07-28T07:46:56.170Z,100622.69
2022-07-28T07:49:01.056Z,100629.04
2022-07-28T07:51:06.117Z,100629.39
2022-07-28T07:53:16.873Z,100629.41
2022-07-28T07:55:21.614Z,100631.52
2022-07-28T07:57:26.109Z,100629.48
2022-07-28T07:59:30.749Z,100627.72
2022-07-28T08:01:35.533Z,100627.05
2022-07-28T08:03:51.047Z,100623.11
2022-07-28T08:05:58.475Z,100617.25
2022-07-28T08:08:04.838Z,100613.06
2022-07-28T08:10:09.520Z,100609.7
2022-07-28T08:12:14.256Z,100604.53
2022-07-28T08:14:19.611Z,100614.53
2022-07-28T08:16:24.300Z,100614.05
2022-07-28T08:18:29.138Z,100613.22
2022-07-28T08:20:33.748Z,100613.34
2022-07-28T08:22:38.310Z,100611.89
2022-07-28T08:24:42.992Z,100614.78
2022-07-28T08:26:47.613Z,100612.31
2022-07-28T08:28:52.337Z,100612.99
2022-07-28T08:30:57.120Z,100612.41
2022-07-28T08:33:01.779Z,100610.13
2022-07-28T08:35:34.897Z,100607.19
2022-07-28T08:37:40.111Z,100607.97
2022-07-28T08:39:44.726Z,100608.84
2022-07-28T08:41:49.327Z,100607.2
2022-07-28T08:43:53.968Z,100607.04
2022-07-28T08:45:59.918Z,100605.21
2022-07-28T08:48:10.169Z,100601.24
2022-07-28T08:50:14.789Z,100600.84
2022-07-28T08:52:19.383Z,100600.7
2022-07-28T08:54:24.136Z,100602.72
2022-07-28T08:56:28.756Z,100598.89
2022-07-28T08:58:33.355Z,100602.28
2022-07-28T09:00:37.906Z,100598.1
2022-07-28T09:02:46.778Z,100600.44
2022-07-28T09:04:56.966Z,100593.73
2022-07-28T09:07:01.770Z,100593.03
2022-07-28T09:09:06.264Z,100590.41
2022-07-28T09:11:10.934Z,100595.79
2022-07-28T09:13:15.555Z,100597.33
2022-07-28T09:15:20.373Z,100591.38
2022-07-28T09:17:25.405Z,100587.96
2022-07-28T09:19:36.789Z,100590.18
2022-07-28T09:21:41.513Z,100596.98
2022-07-28T09:23:46.445Z,100595.39
2022-07-28T09:25:51.036Z,100591.39
2022-07-28T09:27:55.576Z,100597.04
2022-07-28T09:30:00.229Z,100596.64
2022-07-28T09:32:05.099Z,100593.05
2022-07-28T09:34:09.849Z,100598.64
2022-07-28T09:36:14.576Z,100592.2
2022-07-28T09:38:19.191Z,100591.06
2022-07-28T09:40:23.901Z,100587.13
2022-07-28T09:42:28.543Z,100582.48
2022-07-28T09:44:33.262Z,100583.27
2022-07-28T09:46:38.518Z,100583.5
2022-07-28T09:48:44.237Z,100581.48
2022-07-28T09:50:52.343Z,100578.58
2022-07-28T09:52:56.961Z,100583.43
2022-07-28T09:55:01.693Z,100574.17
2022-07-28T09:57:06.397Z,100576.83
2022-07-28T09:59:12.829Z,100577.78
2022-07-28T10:01:20.219Z,100572.14
2022-07-28T10:03:24.885Z,100569.95
2022-07-28T10:05:29.712Z,100573.17
2022-07-28T10:07:34.339Z,100568.8
2022-07-28T10:09:38.956Z,100571.11
2022-07-28T10:11:43.671Z,100571.16
2022-07-28T10:13:48.294Z,100567.91
2022-07-28T10:15:53.085Z,100566.93
2022-07-28T10:17:57.818Z,100569.33
2022-07-28T10:20:02.363Z,100567.88
2022-07-28T10:22:06.986Z,100564.88
2022-07-28T10:24:11.865Z,100568.64
2022-07-28T10:26:17.148Z,100570.99
2022-07-28T10:28:21.840Z,100572.72
2022-07-28T10:30:26.379Z,100567.53
2022-07-28T10:32:30.892Z,100563.96
2022-07-28T10:34:35.629Z,100560.23
2022-07-28T10:36:40.253Z,100554.7
2022-07-28T10:38:45.789Z,100551.86
2022-07-28T10:40:50.408Z,100557.01
2022-07-28T10:42:55.136Z,100557.55
2022-07-28T10:44:59.727Z,100560.1
2022-07-28T10:47:04.495Z,100558.58
2022-07-28T10:49:22.444Z,100554.75
2022-07-28T10:52:15.344Z,100554.47
2022-07-28T10:54:50.996Z,100551.86
2022-07-28T10:56:58.906Z,100546.26
2022-07-28T10:59:08.323Z,100551.23
2022-07-28T11:01:48.175Z,100549.56
2022-07-28T11:03:54.486Z,100547.71
2022-07-28T11:05:59.166Z,100545.53
2022-07-28T11:08:03.771Z,100543.33
2022-07-28T11:10:08.727Z,100542.89
2022-07-28T11:12:14.933Z,100546.7
2022-07-28T11:14:20.374Z,100541.9
2022-07-28T11:16:25.092Z,100540.66
2022-07-28T11:18:29.745Z,100543.47
2022-07-28T11:20:34.388Z,100537.44
2022-07-28T11:22:39.362Z,100535.16
2022-07-28T11:24:46.090Z,100537.64
2022-07-28T11:26:52.241Z,100541.17
2022-07-28T11:28:56.861Z,100536.16
2022-07-28T11:31:01.688Z,100536.13
2022-07-28T11:33:06.578Z,100537.68
2022-07-28T11:35:11.132Z,100531.79
2022-07-28T11:37:16.418Z,100535.2
2022-07-28T11:39:20.985Z,100534.3
2022-07-28T11:41:26.321Z,100534.41
2022-07-28T11:43:39.291Z,100530.33
2022-07-28T11:45:56.285Z,100527.39
2022-07-28T11:48:02.291Z,100522.55
2022-07-28T11:50:06.821Z,100520.17
2022-07-28T11:52:11.323Z,100524.28
2022-07-28T11:54:18.150Z,100520.19
2022-07-28T11:56:22.732Z,100513.48
2022-07-28T11:58:28.896Z,100517.56
2022-07-28T12:00:33.412Z,100512.93
2022-07-28T12:02:38.318Z,100509.94
2022-07-28T12:04:43.339Z,100503.17
2022-07-28T12:06:52.401Z,100500.75
2022-07-28T12:08:58.046Z,100497.13
2022-07-28T12:11:02.663Z,100500.7
2022-07-28T12:13:07.288Z,100499.41
2022-07-28T12:15:12.010Z,100497.86
2022-07-28T12:17:17.164Z,100498.31
2022-07-28T12:19:33.284Z,100495.69
2022-07-28T12:21:49.626Z,100493.27
2022-07-28T12:23:54.762Z,100496.94
2022-07-28T12:26:01.078Z,100494.91
2022-07-28T12:28:09.021Z,100489.8
2022-07-28T12:30:14.060Z,100496.86
2022-07-28T12:32:23.803Z,100492.47
2022-07-28T12:34:30.221Z,100491.45
2022-07-28T12:36:34.785Z,100491.06
2022-07-28T12:38:39.409Z,100487.67
2022-07-28T12:40:43.897Z,100486.86
2022-07-28T12:42:53.738Z,100484.38
2022-07-28T12:44:58.405Z,100484.52
2022-07-28T12:47:02.991Z,100485.89
2022-07-28T12:49:07.828Z,100483.69
2022-07-28T12:51:12.768Z,100486.66
2022-07-28T12:53:17.491Z,100479.63
2022-07-28T12:55:21.980Z,100478.44
2022-07-28T12:57:26.629Z,100478.08
2022-07-28T12:59:31.355Z,100478.1
2022-07-28T13:01:36.118Z,100475.19
2022-07-28T13:03:41.107Z,100474.38
2022-07-28T13:05:45.834Z,100476.39
2022-07-28T13:07:50.642Z,100471.98
2022-07-28T13:10:01.731Z,100469.94
2022-07-28T13:12:07.043Z,100467.96
2022-07-28T13:14:11.839Z,100461.95
2022-07-28T13:16:17.497Z,100460.66
2022-07-28T13:18:22.380Z,100460.44
2022-07-28T13:20:26.998Z,100459.23
2022-07-28T13:22:32.479Z,100460.31
2022-07-28T13:24:37.261Z,100462.59
2022-07-28T13:26:45.460Z,100462.91
2022-07-28T13:28:49.986Z,100461.66
2022-07-28T13:30:54.501Z,100462.26
2022-07-28T13:32:59.390Z,100458.59
2022-07-28T13:35:04.360Z,100455.69
2022-07-28T13:37:09.188Z,100457.5
2022-07-28T13:39:13.921Z,100458.36
2022-07-28T13:41:18.665Z,100459.23
2022-07-28T13:43:23.366Z,100455.59
2022-07-28T13:45:41.979Z,100454.28
2022-07-28T13:47:53.568Z,100450.67
2022-07-28T13:49:58.315Z,100447.39
2022-07-28T13:52:02.933Z,100446.92
2022-07-28T13:54:07.655Z,100442.27
2022-07-28T13:56:12.375Z,100440.6
2022-07-28T13:58:17.415Z,100447.33
2022-07-28T14:00:23.668Z,100441.33
2022-07-28T14:02:28.838Z,100438.59
2022-07-28T14:04:33.629Z,100442.25
2022-07-28T14:06:45.515Z,100439.59
2022-07-28T14:08:53.843Z,100434.88
2022-07-28T14:11:00.093Z,100436.39
2022-07-28T14:13:08.097Z,100432.95
2022-07-28T14:15:13.025Z,100433.02
2022-07-28T14:17:45.809Z,100426.98
2022-07-28T14:19:51.227Z,100425.12
2022-07-28T14:21:55.765Z,100427.43
2022-07-28T14:24:00.348Z,100430.13
2022-07-28T14:26:36.218Z,100430.96
2022-07-28T14:28:40.965Z,100426.55
2022-07-28T14:30:45.553Z,100424.09
2022-07-28T14:32:50.205Z,100424.38
2022-07-28T14:34:55.797Z,100423.37
2022-07-28T14:37:08.763Z,100422.81
2022-07-28T14:39:13.934Z,100423.88
2022-07-28T14:41:18.613Z,100419.53
2022-07-28T14:43:23.239Z,100419.02
2022-07-28T14:45:27.764Z,100414.94
2022-07-28T14:47:46.509Z,100411.95
2022-07-28T14:49:59.121Z,100412.87
2022-07-28T14:52:03.743Z,100413.89
2022-07-28T14:54:08.468Z,100412.55
2022-07-28T14:56:13.335Z,100411.13
2022-07-28T14:58:18.011Z,100411.67
2022-07-28T15:00:22.637Z,100415.31
2022-07-28T15:02:30.889Z,100411.77
2022-07-28T15:04:35.667Z,100407.84
2022-07-28T15:06:40.392Z,100407.46
2022-07-28T15:08:44.986Z,100405.84
2022-07-28T15:10:50.276Z,100405.64
2022-07-28T15:12:54.977Z,100408.42
2022-07-28T15:14:59.588Z,100406.28
2022-07-28T15:17:04.473Z,100410.52
2022-07-28T15:19:09.149Z,100409.48
2022-07-28T15:21:13.868Z,100408.84
2022-07-28T15:23:18.474Z,100406.99
2022-07-28T15:25:23.219Z,100402.5
2022-07-28T15:27:34.267Z,100404.94
2022-07-28T15:29:38.905Z,100405.58
2022-07-28T15:31:49.277Z,100402.54
2022-07-28T15:33:59.205Z,100406.37
2022-07-28T15:36:05.538Z,100398.25
2022-07-28T15:38:10.201Z,100399.2
2022-07-28T15:40:14.816Z,100394.48
2022-07-28T15:42:19.546Z,100394.46
2022-07-28T15:44:27.537Z,100392.58
2022-07-28T15:46:32.205Z,100396.12
2022-07-28T15:48:37.071Z,100396.18
2022-07-28T15:50:41.889Z,100391.23
2022-07-28T15:52:46.645Z,100394.86
2022-07-28T15:54:51.470Z,100391.89
2022-07-28T15:56:56.055Z,100392.53
2022-07-28T15:59:00.709Z,100392.53
2022-07-28T16:01:05.339Z,100391.53
2022-07-28T16:03:10.169Z,100387.98
2022-07-28T16:05:15.188Z,100386.41
2022-07-28T16:07:23.378Z,100380.19
2022-07-28T16:09:47.783Z,100379.42
2022-07-28T16:11:52.294Z,100378.81
2022-07-28T16:13:56.815Z,100377.3
2022-07-28T16:16:01.593Z,100377.25
2022-07-28T16:18:06.564Z,100377.37
2022-07-28T16:20:13.138Z,100374.73
2022-07-28T16:22:17.947Z,100373.64
2022-07-28T16:24:22.582Z,100375.6
2022-07-28T16:26:28.298Z,100376.09
2022-07-28T16:28:32.843Z,100379.07
2022-07-28T16:30:37.549Z,100376.11
2022-07-28T16:32:42.296Z,100377.53
2022-07-28T16:34:47.028Z,100373.83
2022-07-28T16:36:51.649Z,100376.05
2022-07-28T16:38:56.268Z,100375.83
2022-07-28T16:41:01.199Z,100379.48
2022-07-28T16:43:05.802Z,100374.91
2022-07-28T16:45:10.824Z,100367.86
2022-07-28T16:47:15.363Z,100368.4
2022-07-28T16:49:20.090Z,100368.61
2022-07-28T16:51:24.823Z,100365.72
2022-07-28T16:53:29.538Z,100362.33
2022-07-28T16:55:34.157Z,100365.63
2022-07-28T16:57:39.747Z,100365.72
2022-07-28T16:59:49.444Z,100367.21
2022-07-28T17:01:54.397Z,100365.48
2022-07-28T17:03:59.200Z,100363.86
2022-07-28T17:06:03.821Z,100363.22
2022-07-28T17:08:08.442Z,100360.28
2022-07-28T17:10:13.058Z,100362.9
2022-07-28T17:12:17.595Z,100363.63
2022-07-28T17:14:22.307Z,100364.84
2022-07-28T17:16:27.237Z,100366.78
2022-07-28T17:18:32.072Z,100365.88
2022-07-28T17:20:36.684Z,100364.38
2022-07-28T17:22:41.511Z,100360.38
2022-07-28T17:24:46.135Z,100362.81
2022-07-28T17:27:39.722Z,100358.2
2022-07-28T17:29:51.691Z,100354.97
2022-07-28T17:31:56.321Z,100358.98
2022-07-28T17:34:01.042Z,100359.84
2022-07-28T17:36:05.760Z,100366.41
2022-07-28T17:38:10.396Z,100364.5
2022-07-28T17:40:17.870Z,100364.55
2022-07-28T17:42:31.100Z,100363.9
2022-07-28T17:44:35.942Z,100368.97
2022-07-28T17:46:41.030Z,100368.55
2022-07-28T17:48:47.691Z,100368.2
2022-07-28T17:50:52.450Z,100372.19
2022-07-28T17:52:57.383Z,100369.95
2022-07-28T17:55:03.743Z,100375.42
2022-07-28T17:57:09.286Z,100377.84
2022-07-28T17:59:14.827Z,100379.36
2022-07-28T18:01:19.682Z,100377.9
2022-07-28T18:03:24.591Z,100379.25
2022-07-28T18:05:29.415Z,100381.06
2022-07-28T18:07:53.751Z,100378.5
2022-07-28T18:10:03.021Z,100380.42
2022-07-28T18:12:07.853Z,100379.48
2022-07-28T18:14:12.474Z,100376.85
2022-07-28T18:16:21.902Z,100377.36
2022-07-28T18:18:26.633Z,100377.84
2022-07-28T18:20:31.350Z,100377.34
2022-07-28T18:22:35.977Z,100375.03
2022-07-28T18:24:40.601Z,100374.7
2022-07-28T18:26:45.628Z,100376.67
2022-07-28T18:28:50.258Z,100378.63
2022-07-28T18:30:55.117Z,100376.23
2022-07-28T18:33:02.249Z,100376.68
2022-07-28T18:35:06.719Z,100376.51
2022-07-28T18:37:11.241Z,100379.87
2022-07-28T18:39:15.698Z,100385.63
2022-07-28T18:41:20.180Z,100381.5
2022-07-28T18:43:24.677Z,100386.57
2022-07-28T18:45:29.368Z,100385.55
2022-07-28T18:47:34.002Z,100386.38
2022-07-28T18:49:49.182Z,100388.81
2022-07-28T18:51:54.289Z,100384.17
2022-07-28T18:53:58.884Z,100393.14
2022-07-28T18:56:03.526Z,100395.52
2022-07-28T18:58:08.274Z,100395.33
2022-07-28T19:00:12.979Z,100399.91
2022-07-28T19:02:18.013Z,100397.53
2022-07-28T19:04:22.942Z,100397.38
2022-07-28T19:06:27.666Z,100402.7
2022-07-28T19:08:32.266Z,100403.09
2022-07-28T19:10:36.805Z,100405.84
2022-07-28T19:12:41.400Z,100405.41
2022-07-28T19:14:46.048Z,100408.08
2022-07-28T19:16:50.562Z,100414.91
2022-07-28T19:18:55.290Z,100414.23
2022-07-28T19:20:59.905Z,100417.92
2022-07-28T19:23:06.788Z,100419.76
2022-07-28T19:25:11.498Z,100417.47
2022-07-28T19:27:16.021Z,100419.78
2022-07-28T19:29:20.747Z,100413.88
2022-07-28T19:31:25.518Z,100421.38
2022-07-28T19:33:30.147Z,100420.66
2022-07-28T19:35:37.582Z,100416.95
2022-07-28T19:37:42.101Z,100428.32
2022-07-28T19:39:47.301Z,100425.6
2022-07-28T19:41:51.857Z,100423.55
2022-07-28T19:43:56.473Z,100424.31
2022-07-28T19:46:03.082Z,100429.97
2022-07-28T19:48:07.877Z,100432.32
2022-07-28T19:50:12.405Z,100434.61
2022-07-28T19:52:16.893Z,100432.84
2022-07-28T19:54:28.376Z,100430.48
2022-07-28T19:56:32.904Z,100432.23
2022-07-28T19:58:38.868Z,100433.19
2022-07-28T20:00:43.480Z,100436.28
2022-07-28T20:02:48.343Z,100434.95
2022-07-28T20:04:53.134Z,100432.13
2022-07-28T20:06:57.981Z,100431.12
2022-07-28T20:09:02.775Z,100431.13
2022-07-28T20:11:07.436Z,100431.98
2022-07-28T20:13:12.031Z,100433.92
2022-07-28T20:15:16.652Z,100439.39
2022-07-28T20:17:39.807Z,100432.81
2022-07-28T20:19:44.637Z,100432.48
2022-07-28T20:21:49.241Z,100434.36
2022-07-28T20:23:53.773Z,100435.58
2022-07-28T20:25:58.599Z,100436.52
2022-07-28T20:28:03.221Z,100441.58
2022-07-28T20:30:07.849Z,100445.5
2022-07-28T20:32:12.465Z,100443.32
2022-07-28T20:34:18.045Z,100443.88
2022-07-28T20:36:29.948Z,100446.23
2022-07-28T20:38:34.621Z,100445.25
2022-07-28T20:40:39.245Z,100441.2
2022-07-28T20:42:43.975Z,100446.88
2022-07-28T20:44:53.457Z,100446.81
2022-07-28T20:46:58.134Z,100448.19
2022-07-28T20:49:02.892Z,100448.06
2022-07-28T20:51:07.677Z,100448.25
2022-07-28T20:53:12.404Z,100452.13
2022-07-28T20:55:17.129Z,100451.42
2022-07-28T20:57:21.852Z,100450.39
2022-07-28T20:59:29.081Z,100451.45
2022-07-28T21:01:33.796Z,100452.23
2022-07-28T21:03:38.835Z,100454.52
2022-07-28T21:05:49.043Z,100458.75
2022-07-28T21:08:09.391Z,100454.78
2022-07-28T21:10:22.139Z,100462.77
2022-07-28T21:12:26.788Z,100457.95
2022-07-28T21:14:31.480Z,100459.17
2022-07-28T21:16:36.156Z,100459.81
2022-07-28T21:18:40.919Z,100460.41
2022-07-28T21:20:45.559Z,100462.36
2022-07-28T21:22:50.177Z,100462.45
2022-07-28T21:24:56.827Z,100467.97
2022-07-28T21:27:01.364Z,100465.78
2022-07-28T21:29:05.969Z,100466.53
2022-07-28T21:31:10.492Z,100468.78
2022-07-28T21:33:24.422Z,100468.98
2022-07-28T21:35:29.068Z,100470.66
2022-07-28T21:37:33.846Z,100469.66
2022-07-28T21:39:38.480Z,100473.64
2022-07-28T21:41:43.030Z,100475.14
2022-07-28T21:43:47.653Z,100478.08
2022-07-28T21:45:52.575Z,100481.16
2022-07-28T21:47:57.408Z,100479.38
2022-07-28T21:50:02.073Z,100478.05
2022-07-28T21:52:07.049Z,100473.13
2022-07-28T21:54:11.773Z,100471.2
2022-07-28T21:56:16.919Z,100471.25
2022-07-28T21:58:21.743Z,100469.89
2022-07-28T22:00:26.445Z,100467.75
2022-07-28T22:02:31.088Z,100472
2022-07-28T22:04:37.893Z,100474.67
2022-07-28T22:06:47.397Z,100476.28
2022-07-28T22:08:52.019Z,100475.98
2022-07-28T22:10:56.874Z,100476.69
2022-07-28T22:13:01.681Z,100475.61
2022-07-28T22:15:06.423Z,100473.9
2022-07-28T22:17:11.434Z,100477.78
2022-07-28T22:19:16.030Z,100484.16
2022-07-28T22:21:21.946Z,100478.42
2022-07-28T22:23:30.850Z,100480.33
2022-07-28T22:25:35.549Z,100482
2022-07-28T22:27:40.113Z,100482.34
2022-07-28T22:29:52.530Z,100480.13
2022-07-28T22:32:00.711Z,100481.33
2022-07-28T22:34:05.702Z,100480.05
2022-07-28T22:36:10.549Z,100476.84
2022-07-28T22:38:16.977Z,100474.16
2022-07-28T22:40:21.749Z,100473.55
2022-07-28T22:42:26.548Z,100472.06
2022-07-28T22:44:31.147Z,100473.86
2022-07-28T22:46:35.957Z,100476.58
2022-07-28T22:48:40.961Z,100477.34
2022-07-28T22:50:45.749Z,100483.02
2022-07-28T22:52:50.430Z,100483.17
2022-07-28T22:57:43.851Z,100483.81
2022-07-28T22:59:52.209Z,100489.34
2022-07-28T23:01:56.764Z,100487.44
2022-07-28T23:04:03.153Z,100488.2
2022-07-28T23:06:08.478Z,100487.09
2022-07-28T23:08:14.082Z,100488.95
2022-07-28T23:10:18.682Z,100492.06
2022-07-28T23:12:23.250Z,100491.52
2022-07-28T23:14:27.902Z,100492.83
2022-07-28T23:16:33.022Z,100491.34
2022-07-28T23:18:37.951Z,100490.03
2022-07-28T23:20:42.576Z,100491.92
2022-07-28T23:22:47.549Z,100488.98
2022-07-28T23:24:52.222Z,100491.7
2022-07-28T23:26:56.946Z,100485.77
2022-07-28T23:29:01.713Z,100489.68
2022-07-28T23:31:06.510Z,100486.25
2022-07-28T23:33:57.602Z,100485.98
2022-07-28T23:36:02.342Z,100480.44
2022-07-28T23:38:07.299Z,100480.67
2022-07-28T23:40:11.986Z,100483
2022-07-28T23:42:16.753Z,100482.03
2022-07-28T23:44:21.356Z,100484.66
2022-07-28T23:46:26.353Z,100484.59
2022-07-28T23:48:31.315Z,100484.38
2022-07-28T23:50:36.105Z,100483.4
2022-07-28T23:52:40.738Z,100478.75
2022-07-28T23:54:45.745Z,100475.54
2022-07-28T23:56:50.533Z,100476.44
2022-07-28T23:58:55.214Z,100475.73
